createdAt,value
2023-05-14T00:01:39.310Z,19.42
2023-05-14T00:04:42.545Z,23.33
2023-05-14T00:07:47.563Z,24.83
2023-05-14T00:10:51.008Z,21.35
2023-05-14T00:13:54.516Z,21.35
2023-05-14T00:16:58.229Z,21.48
2023-05-14T00:20:01.322Z,25.02
2023-05-14T00:23:06.609Z,18.23
2023-05-14T00:26:09.726Z,20.77
2023-05-14T00:29:13.581Z,19.48
2023-05-14T00:32:16.925Z,16.98
2023-05-14T00:35:21.337Z,22.52
2023-05-14T00:38:27.732Z,21.73
2023-05-14T00:41:30.840Z,22.33
2023-05-14T00:44:34.040Z,23.58
2023-05-14T00:47:39.227Z,20.88
2023-05-14T00:50:43.907Z,22.10
2023-05-14T00:53:48.782Z,25.42
2023-05-14T00:56:52.489Z,23.33
2023-05-14T00:59:56.365Z,22.17
2023-05-14T01:03:01.482Z,26.95
2023-05-14T01:06:13.292Z,23.35
2023-05-14T01:09:23.246Z,22.38
2023-05-14T01:12:34.519Z,23.42
2023-05-14T01:15:41.322Z,26.60
2023-05-14T01:18:47.171Z,24.70
2023-05-14T01:21:51.792Z,24.75
2023-05-14T01:24:54.965Z,23.85
2023-05-14T01:28:04.912Z,23.27
2023-05-14T01:31:17.389Z,26.33
2023-05-14T01:34:23.294Z,24.83
2023-05-14T01:37:30.056Z,22.33
2023-05-14T01:40:34.691Z,23.70
2023-05-14T01:43:39.357Z,22.08
2023-05-14T01:46:42.583Z,22.10
2023-05-14T01:49:45.814Z,25.70
2023-05-14T01:52:53.185Z,23.92
2023-05-14T01:55:57.381Z,22.50
2023-05-14T01:59:00.476Z,23.98
2023-05-14T02:02:03.659Z,22.50
2023-05-14T02:05:07.676Z,24.00
2023-05-14T02:08:12.177Z,20.17
2023-05-14T02:11:15.441Z,26.05
2023-05-14T02:14:18.654Z,22.33
2023-05-14T02:17:22.065Z,18.95
2023-05-14T02:20:25.457Z,23.42
2023-05-14T02:23:40.549Z,24.65
2023-05-14T02:26:44.631Z,22.35
2023-05-14T02:29:47.864Z,23.80
2023-05-14T02:32:51.578Z,21.70
2023-05-14T02:35:54.987Z,21.50
2023-05-14T02:39:00.875Z,24.63
2023-05-14T02:42:04.059Z,19.77
2023-05-14T02:45:08.139Z,22.05
2023-05-14T02:48:11.328Z,20.83
2023-05-14T02:51:14.407Z,22.95
2023-05-14T02:54:18.888Z,24.02
2023-05-14T02:57:22.395Z,22.63
2023-05-14T03:00:25.836Z,28.85
2023-05-14T03:03:30.464Z,27.80
2023-05-14T03:06:33.920Z,25.80
2023-05-14T03:09:38.595Z,28.75
2023-05-14T03:12:41.882Z,29.65
2023-05-14T03:15:45.254Z,28.60
2023-05-14T03:18:48.754Z,26.80
2023-05-14T03:21:52.034Z,29.90
2023-05-14T03:24:56.578Z,24.17
2023-05-14T03:27:59.698Z,28.70
2023-05-14T03:34:39.965Z,24.58
2023-05-14T03:37:43.615Z,25.40
2023-05-14T03:40:47.155Z,23.80
2023-05-14T03:43:50.325Z,26.17
2023-05-14T03:46:53.404Z,23.70
2023-05-14T03:49:58.242Z,24.05
2023-05-14T03:53:01.435Z,27.27
2023-05-14T03:56:06.462Z,26.42
2023-05-14T03:59:10.238Z,27.42
2023-05-14T04:02:13.592Z,24.73
2023-05-14T04:05:18.078Z,21.33
2023-05-14T04:08:21.993Z,22.20
2023-05-14T04:11:26.150Z,24.30
2023-05-14T04:14:29.315Z,22.33
2023-05-14T04:17:34.511Z,27.48
2023-05-14T04:20:40.464Z,23.20
2023-05-14T04:23:43.567Z,20.75
2023-05-14T04:26:46.722Z,24.60
2023-05-14T04:29:49.898Z,23.05
2023-05-14T04:32:53.240Z,20.45
2023-05-14T04:35:57.768Z,21.25
2023-05-14T04:39:00.897Z,20.13
2023-05-14T04:42:04.114Z,21.80
2023-05-14T04:45:08.753Z,24.15
2023-05-14T04:48:12.195Z,21.40
2023-05-14T04:51:16.802Z,19.02
2023-05-14T04:54:19.947Z,21.45
2023-05-14T04:57:23.249Z,22.13
2023-05-14T05:00:27.118Z,20.73
2023-05-14T05:03:31.139Z,20.58
2023-05-14T05:06:35.603Z,20.08
2023-05-14T05:09:38.748Z,18.55
2023-05-14T05:12:42.240Z,13.48
2023-05-14T05:15:45.832Z,14.98
2023-05-14T05:18:49.122Z,15.13
2023-05-14T05:21:53.754Z,14.50
2023-05-14T05:24:56.908Z,14.48
2023-05-14T05:28:00.023Z,13.38
2023-05-14T05:31:03.215Z,12.18
2023-05-14T05:34:06.501Z,10.73
2023-05-14T05:37:12.747Z,13.95
2023-05-14T05:40:15.952Z,12.95
2023-05-14T05:43:19.380Z,11.75
2023-05-14T05:46:22.595Z,11.23
2023-05-14T05:49:26.037Z,10.55
2023-05-14T05:52:30.689Z,11.65
2023-05-14T05:55:33.848Z,11.15
2023-05-14T05:58:37.095Z,9.32
2023-05-14T06:01:40.729Z,14.38
2023-05-14T06:04:43.869Z,10.05
2023-05-14T06:07:48.648Z,10.35
2023-05-14T06:10:51.925Z,9.07
2023-05-14T06:13:55.222Z,10.30
2023-05-14T06:16:58.690Z,11.23
2023-05-14T06:20:02.022Z,9.38
2023-05-14T06:23:07.741Z,11.98
2023-05-14T06:26:10.895Z,7.88
2023-05-14T06:29:14.099Z,9.20
2023-05-14T06:32:17.583Z,11.52
2023-05-14T06:35:20.867Z,9.82
2023-05-14T06:38:25.703Z,10.18
2023-05-14T06:41:29.580Z,8.70
2023-05-14T06:44:33.064Z,9.02
2023-05-14T06:47:36.316Z,9.82
2023-05-14T06:50:39.465Z,9.07
2023-05-14T06:53:43.979Z,11.52
2023-05-14T06:56:47.186Z,8.27
2023-05-14T06:59:50.392Z,10.75
2023-05-14T07:02:53.719Z,8.30
2023-05-14T07:05:56.956Z,10.60
2023-05-14T07:09:02.974Z,8.63
2023-05-14T07:12:07.196Z,7.55
2023-05-14T07:15:11.893Z,8.20
2023-05-14T07:18:15.116Z,8.70
2023-05-14T07:21:18.377Z,8.57
2023-05-14T07:24:23.518Z,9.18
2023-05-14T07:27:26.672Z,8.95
2023-05-14T07:30:29.769Z,6.88
2023-05-14T07:33:33.044Z,8.02
2023-05-14T07:36:36.208Z,9.40
2023-05-14T07:39:41.671Z,8.57
2023-05-14T07:42:44.786Z,7.65
2023-05-14T07:45:48.012Z,10.80
2023-05-14T07:48:51.257Z,10.38
2023-05-14T07:51:54.460Z,9.45
2023-05-14T07:54:59.939Z,6.90
2023-05-14T07:58:03.284Z,10.65
2023-05-14T08:01:09.074Z,9.75
2023-05-14T08:04:12.620Z,8.80
2023-05-14T08:07:15.832Z,8.93
2023-05-14T08:10:20.491Z,7.15
2023-05-14T08:13:23.980Z,8.13
2023-05-14T08:16:27.328Z,7.70
2023-05-14T08:19:30.541Z,10.45
2023-05-14T08:22:33.794Z,6.82
2023-05-14T08:25:38.341Z,9.77
2023-05-14T08:28:41.498Z,7.65
2023-05-14T08:31:44.781Z,7.43
2023-05-14T08:34:47.932Z,8.50
2023-05-14T08:37:52.163Z,9.50
2023-05-14T08:40:58.917Z,6.72
2023-05-14T08:44:09.201Z,7.60
2023-05-14T08:47:13.436Z,7.53
2023-05-14T08:50:17.053Z,8.73
2023-05-14T08:53:20.205Z,8.38
2023-05-14T08:56:26.561Z,9.65
2023-05-14T08:59:29.716Z,8.00
2023-05-14T09:02:33.435Z,6.85
2023-05-14T09:05:36.972Z,9.73
2023-05-14T09:08:40.174Z,6.85
2023-05-14T09:11:47.830Z,7.13
2023-05-14T09:14:51.644Z,8.27
2023-05-14T09:17:55.042Z,8.00
2023-05-14T09:20:58.813Z,7.03
2023-05-14T09:24:02.369Z,10.43
2023-05-14T09:27:08.039Z,7.80
2023-05-14T09:30:12.808Z,8.45
2023-05-14T09:34:39.539Z,7.35
2023-05-14T09:37:43.768Z,8.05
2023-05-14T09:40:47.510Z,7.35
2023-05-14T09:43:52.344Z,7.28
2023-05-14T09:46:55.966Z,7.45
2023-05-14T09:50:00.671Z,8.75
2023-05-14T09:53:04.116Z,9.05
2023-05-14T09:56:07.331Z,7.40
2023-05-14T09:59:10.952Z,7.38
2023-05-14T10:02:22.748Z,11.20
2023-05-14T10:05:28.790Z,9.35
2023-05-14T10:08:35.654Z,7.25
2023-05-14T10:11:43.311Z,8.32
2023-05-14T10:14:53.182Z,8.15
2023-05-14T10:17:59.771Z,7.28
2023-05-14T10:21:06.530Z,6.53
2023-05-14T10:24:11.001Z,7.53
2023-05-14T10:27:15.270Z,11.48
2023-05-14T10:30:22.914Z,6.68
2023-05-14T10:33:26.276Z,8.38
2023-05-14T10:36:31.275Z,6.28
2023-05-14T10:39:48.365Z,6.22
2023-05-14T10:42:51.810Z,5.78
2023-05-14T10:45:55.207Z,5.95
2023-05-14T10:48:58.456Z,7.35
2023-05-14T10:52:09.300Z,7.72
2023-05-14T10:55:15.391Z,5.65
2023-05-14T10:58:19.086Z,7.20
2023-05-14T11:01:25.214Z,6.80
2023-05-14T11:04:29.218Z,7.40
2023-05-14T11:07:35.439Z,8.32
2023-05-14T11:10:40.338Z,8.85
2023-05-14T11:13:43.863Z,8.45
2023-05-14T11:16:48.143Z,6.47
2023-05-14T11:19:51.398Z,7.47
2023-05-14T11:22:55.888Z,8.75
2023-05-14T11:25:59.050Z,11.70
2023-05-14T11:29:02.380Z,7.93
2023-05-14T11:32:07.545Z,25.45
2023-05-14T11:35:11.101Z,7.80
2023-05-14T11:38:20.220Z,7.32
2023-05-14T11:41:23.792Z,9.73
2023-05-14T11:44:27.173Z,5.60
2023-05-14T11:47:31.500Z,5.07
2023-05-14T11:50:37.497Z,9.35
2023-05-14T11:53:42.112Z,6.03
2023-05-14T11:56:51.952Z,5.15
2023-05-14T11:59:57.895Z,6.65
2023-05-14T12:03:01.523Z,5.65
2023-05-14T12:06:08.298Z,6.47
2023-05-14T12:09:17.496Z,6.60
2023-05-14T12:12:21.990Z,6.63
2023-05-14T12:15:26.709Z,6.35
2023-05-14T12:18:31.841Z,6.32
2023-05-14T12:21:36.515Z,7.03
2023-05-14T12:24:41.206Z,4.38
2023-05-14T12:27:46.078Z,10.23
2023-05-14T12:30:56.891Z,5.93
2023-05-14T12:34:00.869Z,6.53
2023-05-14T12:37:04.959Z,14.18
2023-05-14T12:40:10.366Z,6.20
2023-05-14T12:43:13.563Z,4.75
2023-05-14T12:46:17.017Z,6.53
2023-05-14T12:49:20.605Z,5.60
2023-05-14T12:52:36.796Z,5.57
2023-05-14T12:55:42.869Z,4.63
2023-05-14T12:58:46.637Z,5.75
2023-05-14T13:01:50.075Z,6.78
2023-05-14T13:04:53.205Z,4.40
2023-05-14T13:08:00.641Z,5.30
2023-05-14T13:11:05.229Z,4.90
2023-05-14T13:14:10.466Z,4.90
2023-05-14T13:17:13.926Z,5.25
2023-05-14T13:20:17.792Z,4.80
2023-05-14T13:23:20.928Z,6.60
2023-05-14T13:26:28.162Z,5.93
2023-05-14T13:29:31.574Z,6.15
2023-05-14T13:32:34.759Z,5.00
2023-05-14T13:35:38.068Z,3.72
2023-05-14T13:38:41.261Z,4.93
2023-05-14T13:41:45.700Z,6.38
2023-05-14T13:44:48.990Z,5.07
2023-05-14T13:47:52.179Z,5.00
2023-05-14T13:50:55.436Z,5.43
2023-05-14T13:53:58.942Z,4.97
2023-05-14T13:57:03.350Z,4.55
2023-05-14T14:00:07.970Z,4.55
2023-05-14T14:03:11.389Z,5.32
2023-05-14T14:06:14.606Z,3.78
2023-05-14T14:09:17.740Z,4.30
2023-05-14T14:12:22.478Z,5.25
2023-05-14T14:15:25.870Z,4.13
2023-05-14T14:18:29.205Z,5.22
2023-05-14T14:21:32.733Z,4.95
2023-05-14T14:24:35.957Z,5.57
2023-05-14T14:27:40.926Z,4.10
2023-05-14T14:30:44.673Z,3.70
2023-05-14T14:33:48.167Z,3.90
2023-05-14T14:36:51.410Z,4.68
2023-05-14T14:39:54.928Z,4.00
2023-05-14T14:42:59.403Z,5.53
2023-05-14T14:46:02.744Z,4.47
2023-05-14T14:49:06.016Z,4.25
2023-05-14T14:52:09.909Z,3.20
2023-05-14T14:55:13.069Z,3.55
2023-05-14T14:58:19.082Z,4.97
2023-05-14T15:01:22.840Z,4.03
2023-05-14T15:04:26.029Z,4.38
2023-05-14T15:07:32.752Z,3.63
2023-05-14T15:10:37.797Z,6.38
2023-05-14T15:13:43.003Z,4.22
2023-05-14T15:16:46.774Z,5.45
2023-05-14T15:19:51.482Z,4.95
2023-05-14T15:22:55.108Z,4.15
2023-05-14T15:25:58.280Z,5.78
2023-05-14T15:29:04.564Z,6.10
2023-05-14T15:34:39.426Z,6.40
2023-05-14T15:37:43.727Z,4.97
2023-05-14T15:40:46.876Z,6.32
2023-05-14T15:43:50.609Z,4.40
2023-05-14T15:46:53.952Z,18.25
2023-05-14T15:49:58.559Z,4.00
2023-05-14T15:53:01.883Z,4.45
2023-05-14T15:56:05.326Z,8.07
2023-05-14T15:59:10.606Z,5.40
2023-05-14T16:02:14.442Z,4.40
2023-05-14T16:05:19.010Z,6.50
2023-05-14T16:08:22.179Z,6.20
2023-05-14T16:11:25.452Z,5.40
2023-05-14T16:14:28.589Z,5.93
2023-05-14T16:17:32.695Z,5.20
2023-05-14T16:20:37.318Z,5.05
2023-05-14T16:23:40.493Z,5.65
2023-05-14T16:26:43.623Z,6.15
2023-05-14T16:29:46.791Z,5.32
2023-05-14T16:32:50.198Z,4.95
2023-05-14T16:35:54.957Z,9.57
2023-05-14T16:39:07.130Z,5.05
2023-05-14T16:42:10.717Z,5.57
2023-05-14T16:45:13.884Z,5.68
2023-05-14T16:48:17.128Z,4.90
2023-05-14T16:51:21.625Z,4.25
2023-05-14T16:54:24.888Z,12.55
2023-05-14T16:57:28.012Z,4.82
2023-05-14T17:00:31.565Z,6.80
2023-05-14T17:03:34.750Z,5.90
2023-05-14T17:06:39.272Z,5.30
2023-05-14T17:09:42.839Z,6.45
2023-05-14T17:12:46.139Z,5.70
2023-05-14T17:15:49.261Z,4.55
2023-05-14T17:18:53.024Z,6.30
2023-05-14T17:21:57.958Z,5.05
2023-05-14T17:25:01.579Z,5.90
2023-05-14T17:28:05.544Z,6.53
2023-05-14T17:31:08.707Z,6.07
2023-05-14T17:34:11.854Z,6.25
2023-05-14T17:37:16.616Z,6.45
2023-05-14T17:40:19.735Z,6.47
2023-05-14T17:43:22.996Z,4.85
2023-05-14T17:46:29.097Z,8.85
2023-05-14T17:49:32.315Z,5.88
2023-05-14T17:52:37.685Z,7.70
2023-05-14T17:55:43.520Z,8.55
2023-05-14T17:58:47.741Z,6.82
2023-05-14T18:01:50.842Z,7.72
2023-05-14T18:04:54.042Z,6.95
2023-05-14T18:07:59.097Z,7.57
2023-05-14T18:11:02.210Z,8.05
2023-05-14T18:14:10.326Z,5.57
2023-05-14T18:17:13.693Z,6.60
2023-05-14T18:20:16.885Z,6.57
2023-05-14T18:23:21.429Z,5.43
2023-05-14T18:26:24.600Z,4.85
2023-05-14T18:29:27.858Z,5.65
2023-05-14T18:32:31.753Z,6.50
2023-05-14T18:35:35.190Z,4.97
2023-05-14T18:38:40.722Z,6.20
2023-05-14T18:41:43.810Z,5.93
2023-05-14T18:44:46.958Z,6.10
2023-05-14T18:47:50.706Z,5.15
2023-05-14T18:50:53.891Z,5.18
2023-05-14T18:53:58.958Z,5.85
2023-05-14T18:57:02.647Z,4.90
2023-05-14T19:00:06.964Z,5.00
2023-05-14T19:03:10.299Z,5.40
2023-05-14T19:06:13.568Z,5.53
2023-05-14T19:09:21.034Z,6.55
2023-05-14T19:12:24.279Z,4.87
2023-05-14T19:15:27.590Z,5.60
2023-05-14T19:18:30.887Z,4.25
2023-05-14T19:21:34.030Z,5.65
2023-05-14T19:24:38.742Z,5.70
2023-05-14T19:27:41.979Z,6.82
2023-05-14T19:30:45.099Z,5.25
2023-05-14T19:33:48.418Z,8.15
2023-05-14T19:36:51.750Z,5.93
2023-05-14T19:39:56.264Z,7.50
2023-05-14T19:42:59.641Z,6.13
2023-05-14T19:46:03.868Z,5.95
2023-05-14T19:49:07.706Z,5.97
2023-05-14T19:52:11.485Z,5.43
2023-05-14T19:55:16.234Z,6.03
2023-05-14T19:58:19.346Z,5.97
2023-05-14T20:01:22.828Z,9.55
2023-05-14T20:04:26.094Z,7.00
2023-05-14T20:07:29.392Z,6.50
2023-05-14T20:10:33.940Z,6.90
2023-05-14T20:13:37.434Z,8.48
2023-05-14T20:16:41.628Z,7.68
2023-05-14T20:19:44.972Z,8.90
2023-05-14T20:22:48.118Z,10.10
2023-05-14T20:25:53.083Z,7.13
2023-05-14T20:28:56.295Z,8.43
2023-05-14T20:31:59.517Z,8.40
2023-05-14T20:35:02.914Z,9.18
2023-05-14T20:38:07.141Z,7.80
2023-05-14T20:41:12.057Z,8.07
2023-05-14T20:44:15.503Z,11.45
2023-05-14T20:47:21.420Z,7.65
2023-05-14T20:50:26.946Z,8.77
2023-05-14T20:53:30.432Z,7.72
2023-05-14T20:56:36.398Z,13.38
2023-05-14T20:59:39.576Z,8.13
2023-05-14T21:02:42.812Z,9.38
2023-05-14T21:05:46.166Z,7.40
2023-05-14T21:08:49.322Z,8.23
2023-05-14T21:11:53.886Z,9.73
2023-05-14T21:14:57.202Z,8.00
2023-05-14T21:18:01.245Z,8.00
2023-05-14T21:21:05.420Z,7.75
2023-05-14T21:24:09.051Z,9.05
2023-05-14T21:27:14.130Z,8.82
2023-05-14T21:30:17.385Z,7.80
2023-05-14T21:34:39.127Z,6.97
2023-05-14T21:37:42.422Z,6.93
2023-05-14T21:40:45.561Z,6.93
2023-05-14T21:43:48.970Z,9.35
2023-05-14T21:46:52.240Z,7.03
2023-05-14T21:49:56.762Z,7.90
2023-05-14T21:53:00.018Z,7.22
2023-05-14T21:56:03.317Z,7.15
2023-05-14T21:59:11.053Z,6.47
2023-05-14T22:02:14.443Z,7.97
2023-05-14T22:05:19.243Z,7.68
2023-05-14T22:08:25.298Z,7.97
2023-05-14T22:11:28.373Z,7.22
2023-05-14T22:14:31.524Z,6.55
2023-05-14T22:17:35.069Z,9.50
2023-05-14T22:20:39.934Z,9.88
2023-05-14T22:23:43.069Z,8.57
2023-05-14T22:26:46.182Z,8.13
2023-05-14T22:29:49.276Z,11.25
2023-05-14T22:32:52.372Z,9.35
2023-05-14T22:35:56.943Z,7.50
2023-05-14T22:39:00.921Z,8.07
2023-05-14T22:42:04.393Z,11.32
2023-05-14T22:45:08.767Z,10.05
2023-05-14T22:48:11.993Z,8.00
2023-05-14T22:51:16.617Z,9.23
2023-05-14T22:54:19.742Z,8.95
2023-05-14T22:57:22.977Z,8.32
2023-05-14T23:00:26.164Z,9.25
2023-05-14T23:03:29.630Z,8.88
2023-05-14T23:06:34.154Z,8.52
2023-05-14T23:09:37.431Z,7.55
2023-05-14T23:12:40.547Z,8.80
2023-05-14T23:15:44.783Z,8.48
2023-05-14T23:18:48.099Z,9.75
2023-05-14T23:21:52.700Z,8.40
2023-05-14T23:24:55.894Z,7.78
2023-05-14T23:27:59.125Z,12.07
2023-05-14T23:31:02.428Z,9.30
2023-05-14T23:34:05.575Z,8.80
2023-05-14T23:37:10.110Z,9.82
2023-05-14T23:40:13.657Z,10.05
2023-05-14T23:43:17.023Z,14.85
2023-05-14T23:46:20.248Z,9.20
2023-05-14T23:49:23.529Z,10.73
2023-05-14T23:52:28.063Z,11.65
2023-05-14T23:55:31.400Z,10.35
2023-05-14T23:58:34.511Z,10.05
